createdAt,value
2023-02-28T00:04:21.573Z,53.70
2023-02-28T00:09:23.703Z,52.60
2023-02-28T00:14:26.041Z,52.46
2023-02-28T00:19:28.171Z,53.36
2023-02-28T00:24:30.423Z,53.74
2023-02-28T00:29:32.564Z,53.52
2023-02-28T00:34:39.044Z,53.51
2023-02-28T00:39:42.091Z,53.20
2023-02-28T00:44:44.323Z,54.44
2023-02-28T00:49:46.417Z,55.53
2023-02-28T00:54:48.651Z,54.76
2023-02-28T00:59:51.099Z,55.13
2023-02-28T01:04:53.311Z,55.25
2023-02-28T01:09:56.147Z,54.40
2023-02-28T01:14:59.138Z,54.17
2023-02-28T01:20:01.240Z,53.88
2023-02-28T01:25:03.528Z,53.51
2023-02-28T01:30:06.289Z,53.28
2023-02-28T01:35:08.726Z,53.69
2023-02-28T01:40:11.596Z,53.90
2023-02-28T01:45:32.821Z,53.68
2023-02-28T01:50:41.166Z,53.93
2023-02-28T01:55:46.685Z,54.42
2023-02-28T02:00:49.327Z,54.52
2023-02-28T02:05:51.569Z,54.17
2023-02-28T02:11:01.070Z,53.69
2023-02-28T02:16:12.163Z,53.87
2023-02-28T02:21:38.921Z,54.54
2023-02-28T02:27:11.733Z,54.53
2023-02-28T02:32:47.742Z,54.90
2023-02-28T02:38:00.680Z,54.71
2023-02-28T02:43:15.292Z,54.81
2023-02-28T02:48:22.975Z,54.47
2023-02-28T02:53:39.658Z,54.97
2023-02-28T02:58:45.382Z,54.71
2023-02-28T03:03:51.112Z,54.80
2023-02-28T03:08:53.722Z,54.77
2023-02-28T03:14:27.449Z,54.81
2023-02-28T03:19:40.104Z,55.25
2023-02-28T03:24:56.343Z,55.99
2023-02-28T03:30:11.587Z,55.00
2023-02-28T03:35:23.211Z,54.76
2023-02-28T03:40:31.796Z,54.44
2023-02-28T03:45:37.875Z,54.64
2023-02-28T03:50:42.275Z,55.17
2023-02-28T03:55:48.952Z,55.12
2023-02-28T04:00:58.384Z,54.79
2023-02-28T04:06:00.885Z,54.36
2023-02-28T04:11:14.351Z,54.81
2023-02-28T04:16:32.108Z,55.01
2023-02-28T04:21:41.974Z,54.90
2023-02-28T04:26:46.561Z,54.90
2023-02-28T04:31:48.974Z,55.22
2023-02-28T04:37:02.701Z,55.51
2023-02-28T04:42:14.663Z,55.07
2023-02-28T04:47:16.800Z,55.67
2023-02-28T04:52:18.999Z,55.59
2023-02-28T04:57:21.103Z,55.57
2023-02-28T05:02:25.061Z,55.87
2023-02-28T05:07:27.299Z,55.37
2023-02-28T05:12:29.449Z,55.34
2023-02-28T05:17:31.822Z,54.99
2023-02-28T05:22:33.982Z,54.79
2023-02-28T05:27:36.195Z,54.86
2023-02-28T05:32:44.709Z,55.59
2023-02-28T05:37:46.864Z,57.05
2023-02-28T05:42:51.286Z,56.46
2023-02-28T05:47:57.138Z,55.90
2023-02-28T05:52:59.265Z,56.20
2023-02-28T05:58:01.475Z,55.90
2023-02-28T06:03:03.919Z,55.64
2023-02-28T06:08:08.545Z,55.91
2023-02-28T06:13:10.816Z,55.60
2023-02-28T06:18:13.169Z,55.97
2023-02-28T06:23:15.318Z,55.47
2023-02-28T06:28:17.723Z,55.36
2023-02-28T06:33:19.830Z,57.21
2023-02-28T06:38:22.018Z,59.26
2023-02-28T06:43:24.962Z,57.82
2023-02-28T06:48:28.620Z,57.16
2023-02-28T06:53:30.917Z,60.43
2023-02-28T06:58:33.284Z,64.61
2023-02-28T07:03:37.186Z,65.66
2023-02-28T07:08:41.473Z,65.11
2023-02-28T07:13:43.633Z,64.55
2023-02-28T07:18:45.856Z,68.48
2023-02-28T07:23:48.167Z,66.90
2023-02-28T07:28:51.250Z,64.75
2023-02-28T07:33:54.940Z,62.95
2023-02-28T07:38:57.312Z,62.53
2023-02-28T07:44:00.815Z,62.01
2023-02-28T07:49:04.234Z,61.55
2023-02-28T07:54:06.587Z,61.29
2023-02-28T07:59:08.745Z,61.45
2023-02-28T08:04:11.061Z,61.39
2023-02-28T08:09:13.266Z,61.71
2023-02-28T08:14:15.524Z,62.02
2023-02-28T08:19:17.668Z,62.02
2023-02-28T08:24:19.939Z,63.18
2023-02-28T08:29:22.190Z,63.44
2023-02-28T08:34:24.481Z,64.01
2023-02-28T08:39:26.611Z,64.25
2023-02-28T08:44:28.688Z,64.97
2023-02-28T08:49:31.037Z,65.02
2023-02-28T08:54:34.543Z,64.83
2023-02-28T08:59:36.732Z,64.04
2023-02-28T09:04:38.940Z,63.61
2023-02-28T09:09:55.024Z,63.66
2023-02-28T09:14:57.210Z,62.92
2023-02-28T09:19:59.563Z,66.36
2023-02-28T09:25:01.795Z,64.62
2023-02-28T09:30:04.301Z,63.96
2023-02-28T09:35:06.952Z,66.04
2023-02-28T09:40:11.184Z,66.71
2023-02-28T09:45:35.175Z,66.00
2023-02-28T09:50:43.209Z,65.34
2023-02-28T09:55:56.538Z,64.51
2023-02-28T10:01:13.083Z,64.48
2023-02-28T10:06:18.499Z,63.80
2023-02-28T10:11:22.118Z,64.24
2023-02-28T10:16:31.811Z,64.62
2023-02-28T10:21:47.141Z,64.86
2023-02-28T10:26:50.029Z,64.43
2023-02-28T10:31:52.213Z,64.67
2023-02-28T10:36:56.112Z,64.20
2023-02-28T10:41:59.228Z,64.37
2023-02-28T10:47:01.512Z,64.84
2023-02-28T10:52:03.623Z,64.98
2023-02-28T10:57:23.366Z,65.16
2023-02-28T11:02:44.282Z,65.56
2023-02-28T11:07:54.296Z,64.61
2023-02-28T11:13:01.444Z,64.20
2023-02-28T11:18:28.757Z,63.98
2023-02-28T11:23:37.837Z,63.61
2023-02-28T11:28:42.361Z,63.29
2023-02-28T11:33:55.672Z,62.78
2023-02-28T11:39:04.500Z,62.50
2023-02-28T11:44:27.511Z,62.51
2023-02-28T11:49:32.821Z,63.14
2023-02-28T11:54:55.445Z,62.71
2023-02-28T12:00:20.396Z,62.83
2023-02-28T12:05:25.046Z,62.74
2023-02-28T12:10:31.061Z,62.54
2023-02-28T12:16:10.932Z,63.32
2023-02-28T12:21:44.013Z,63.60
2023-02-28T12:26:47.977Z,63.13
2023-02-28T12:31:53.257Z,64.00
2023-02-28T12:36:59.915Z,64.03
2023-02-28T12:42:18.012Z,63.27
2023-02-28T12:47:20.397Z,63.02
2023-02-28T12:53:08.515Z,62.82
2023-02-28T12:58:29.259Z,62.75
2023-02-28T13:03:43.455Z,63.58
2023-02-28T13:09:00.767Z,63.68
2023-02-28T13:14:17.729Z,63.75
2023-02-28T13:19:24.482Z,64.49
2023-02-28T13:24:49.738Z,64.78
2023-02-28T13:29:53.874Z,66.04
2023-02-28T13:34:57.054Z,65.41
2023-02-28T13:40:11.644Z,65.29
2023-02-28T13:45:13.830Z,65.29
2023-02-28T13:50:34.378Z,66.73
2023-02-28T13:55:59.131Z,66.29
2023-02-28T14:01:23.226Z,65.76
2023-02-28T14:06:28.179Z,65.87
2023-02-28T14:11:36.690Z,64.85
2023-02-28T14:16:43.900Z,64.33
2023-02-28T14:22:03.014Z,64.16
2023-02-28T14:27:44.006Z,64.17
2023-02-28T14:33:10.840Z,63.76
2023-02-28T14:38:23.170Z,64.08
2023-02-28T14:43:30.095Z,64.18
2023-02-28T14:48:32.375Z,63.97
2023-02-28T14:53:38.844Z,63.91
2023-02-28T14:58:41.062Z,64.03
2023-02-28T15:03:46.086Z,64.51
2023-02-28T15:08:48.381Z,64.39
2023-02-28T15:13:56.785Z,65.13
2023-02-28T15:19:02.560Z,65.94
2023-02-28T15:24:15.283Z,65.18
2023-02-28T15:29:22.243Z,66.21
2023-02-28T15:34:42.126Z,66.00
2023-02-28T15:39:46.803Z,65.87
2023-02-28T15:44:50.065Z,66.38
2023-02-28T15:50:00.209Z,66.45
2023-02-28T15:55:29.006Z,66.17
2023-02-28T16:00:34.165Z,66.60
2023-02-28T16:05:36.730Z,66.28
2023-02-28T16:10:38.958Z,66.78
2023-02-28T16:15:44.505Z,66.78
2023-02-28T16:20:46.806Z,66.57
2023-02-28T16:25:49.097Z,66.32
2023-02-28T16:30:57.576Z,66.69
2023-02-28T16:36:00.841Z,66.37
2023-02-28T16:41:03.021Z,65.80
2023-02-28T16:46:05.412Z,65.83
2023-02-28T16:51:13.008Z,66.15
2023-02-28T16:56:21.738Z,65.82
2023-02-28T17:01:24.174Z,66.42
2023-02-28T17:06:32.668Z,65.82
2023-02-28T17:11:34.940Z,66.46
2023-02-28T17:16:41.258Z,66.20
2023-02-28T17:21:44.940Z,65.83
2023-02-28T17:26:47.171Z,65.91
2023-02-28T17:31:49.627Z,65.95
2023-02-28T17:36:53.514Z,65.89
2023-02-28T17:41:56.816Z,66.08
2023-02-28T17:47:00.310Z,66.16
2023-02-28T17:52:03.131Z,66.22
2023-02-28T17:57:05.443Z,65.79
2023-02-28T18:02:07.998Z,65.71
2023-02-28T18:07:13.423Z,65.78
2023-02-28T18:12:15.624Z,65.77
2023-02-28T18:17:17.928Z,66.77
2023-02-28T18:22:20.023Z,67.18
2023-02-28T18:27:22.119Z,66.64
2023-02-28T18:32:24.375Z,66.28
2023-02-28T18:37:27.545Z,66.27
2023-02-28T18:42:30.590Z,66.21
2023-02-28T18:47:32.707Z,66.12
2023-02-28T18:52:34.811Z,66.00
2023-02-28T18:57:36.934Z,65.58
2023-02-28T19:02:39.348Z,65.49
2023-02-28T19:07:41.498Z,64.91
2023-02-28T19:12:43.925Z,65.54
2023-02-28T19:17:46.644Z,64.98
2023-02-28T19:22:48.810Z,64.42
2023-02-28T19:27:54.878Z,64.08
2023-02-28T19:32:57.142Z,64.13
2023-02-28T19:38:02.584Z,63.89
2023-02-28T19:43:06.178Z,63.75
2023-02-28T19:48:10.185Z,63.17
2023-02-28T19:53:12.277Z,62.89
2023-02-28T19:58:14.603Z,63.46
2023-02-28T20:03:18.729Z,63.39
2023-02-28T20:08:20.892Z,63.51
2023-02-28T20:13:28.016Z,63.85
2023-02-28T20:18:30.552Z,63.69
2023-02-28T20:23:32.679Z,63.89
2023-02-28T20:28:34.843Z,63.71
2023-02-28T20:33:36.951Z,64.20
2023-02-28T20:38:39.408Z,64.59
2023-02-28T20:43:42.445Z,64.64
2023-02-28T20:48:44.571Z,64.93
2023-02-28T20:53:46.780Z,65.29
2023-02-28T20:58:51.437Z,64.83
2023-02-28T21:03:58.105Z,65.06
2023-02-28T21:09:00.541Z,65.53
2023-02-28T21:14:06.160Z,65.41
2023-02-28T21:19:09.311Z,65.35
2023-02-28T21:24:17.759Z,65.17
2023-02-28T21:29:20.005Z,65.06
2023-02-28T21:34:22.348Z,65.18
2023-02-28T21:39:30.363Z,65.43
2023-02-28T21:44:34.805Z,65.06
2023-02-28T21:49:38.637Z,64.85
2023-02-28T21:54:40.724Z,64.62
2023-02-28T21:59:43.648Z,64.68
2023-02-28T22:04:45.734Z,64.41
2023-02-28T22:09:47.909Z,64.32
2023-02-28T22:14:50.203Z,63.60
2023-02-28T22:19:52.376Z,63.50
2023-02-28T22:24:54.591Z,63.76
2023-02-28T22:29:58.211Z,63.94
2023-02-28T22:35:00.341Z,63.43
2023-02-28T22:40:02.533Z,63.38
2023-02-28T22:45:04.879Z,63.48
2023-02-28T22:50:07.385Z,63.51
2023-02-28T22:55:10.255Z,64.20
2023-02-28T23:00:15.777Z,64.14
2023-02-28T23:05:18.465Z,64.38
2023-02-28T23:10:20.612Z,64.19
2023-02-28T23:15:23.944Z,64.16
2023-02-28T23:20:26.263Z,63.95
2023-02-28T23:25:28.452Z,63.93
2023-02-28T23:30:30.516Z,63.79
2023-02-28T23:35:34.562Z,64.03
2023-02-28T23:40:36.843Z,64.59
2023-02-28T23:45:39.125Z,64.59
2023-02-28T23:50:41.245Z,64.40
2023-02-28T23:55:47.931Z,64.76
